sensor_id;sensor_type;location;lat;lon;timestamp;P1;durP1;ratioP1;P2;durP2;ratioP2
17564;SDS011;62994;52.126;5.596;2023-10-08T00:02:08;10.20;;;5.18;;
17564;SDS011;62994;52.126;5.596;2023-10-08T00:04:47;8.02;;;4.85;;
17564;SDS011;62994;52.126;5.596;2023-10-08T00:07:17;10.05;;;5.10;;
17564;SDS011;62994;52.126;5.596;2023-10-08T00:09:46;11.30;;;4.70;;
17564;SDS011;62994;52.126;5.596;2023-10-08T00:12:18;6.57;;;4.32;;
17564;SDS011;62994;52.126;5.596;2023-10-08T00:14:45;9.82;;;4.45;;
17564;SDS011;62994;52.126;5.596;2023-10-08T00:17:14;12.05;;;4.88;;
17564;SDS011;62994;52.126;5.596;2023-10-08T00:19:42;12.20;;;5.32;;
17564;SDS011;62994;52.126;5.596;2023-10-08T00:22:09;8.50;;;4.53;;
17564;SDS011;62994;52.126;5.596;2023-10-08T00:24:39;12.77;;;4.60;;
17564;SDS011;62994;52.126;5.596;2023-10-08T00:27:07;9.45;;;4.53;;
17564;SDS011;62994;52.126;5.596;2023-10-08T00:29:35;11.85;;;5.57;;
17564;SDS011;62994;52.126;5.596;2023-10-08T00:32:05;18.05;;;5.82;;
17564;SDS011;62994;52.126;5.596;2023-10-08T00:34:38;7.93;;;4.05;;
17564;SDS011;62994;52.126;5.596;2023-10-08T00:39:57;9.20;;;4.85;;
17564;SDS011;62994;52.126;5.596;2023-10-08T00:42:24;9.15;;;5.03;;
17564;SDS011;62994;52.126;5.596;2023-10-08T00:44:58;10.07;;;4.53;;
17564;SDS011;62994;52.126;5.596;2023-10-08T00:47:38;12.77;;;5.38;;
17564;SDS011;62994;52.126;5.596;2023-10-08T00:50:10;8.27;;;5.13;;
17564;SDS011;62994;52.126;5.596;2023-10-08T00:52:45;9.40;;;4.72;;
17564;SDS011;62994;52.126;5.596;2023-10-08T00:55:24;10.15;;;4.70;;
17564;SDS011;62994;52.126;5.596;2023-10-08T00:57:55;9.85;;;4.88;;
17564;SDS011;62994;52.126;5.596;2023-10-08T01:00:24;8.23;;;4.88;;
17564;SDS011;62994;52.126;5.596;2023-10-08T01:02:58;13.63;;;5.70;;
17564;SDS011;62994;52.126;5.596;2023-10-08T01:05:26;14.90;;;5.72;;
17564;SDS011;62994;52.126;5.596;2023-10-08T01:08:07;21.02;;;6.38;;
17564;SDS011;62994;52.126;5.596;2023-10-08T01:10:38;13.98;;;6.00;;
17564;SDS011;62994;52.126;5.596;2023-10-08T01:13:08;13.35;;;5.43;;
17564;SDS011;62994;52.126;5.596;2023-10-08T01:15:42;11.98;;;5.47;;
17564;SDS011;62994;52.126;5.596;2023-10-08T01:18:10;12.10;;;5.78;;
17564;SDS011;62994;52.126;5.596;2023-10-08T01:20:41;12.35;;;6.20;;
17564;SDS011;62994;52.126;5.596;2023-10-08T01:23:19;19.70;;;6.43;;
17564;SDS011;62994;52.126;5.596;2023-10-08T01:25:48;15.65;;;5.43;;
17564;SDS011;62994;52.126;5.596;2023-10-08T01:28:17;11.30;;;5.65;;
17564;SDS011;62994;52.126;5.596;2023-10-08T01:30:51;8.13;;;5.28;;
17564;SDS011;62994;52.126;5.596;2023-10-08T01:33:20;15.80;;;5.75;;
17564;SDS011;62994;52.126;5.596;2023-10-08T01:35:50;14.00;;;6.30;;
17564;SDS011;62994;52.126;5.596;2023-10-08T01:38:16;17.23;;;6.25;;
17564;SDS011;62994;52.126;5.596;2023-10-08T01:40:48;12.30;;;5.88;;
17564;SDS011;62994;52.126;5.596;2023-10-08T01:43:18;9.60;;;5.60;;
17564;SDS011;62994;52.126;5.596;2023-10-08T01:45:46;10.13;;;5.55;;
17564;SDS011;62994;52.126;5.596;2023-10-08T01:48:16;7.32;;;4.90;;
17564;SDS011;62994;52.126;5.596;2023-10-08T01:50:50;12.95;;;5.78;;
17564;SDS011;62994;52.126;5.596;2023-10-08T01:53:22;10.10;;;5.60;;
17564;SDS011;62994;52.126;5.596;2023-10-08T01:55:49;11.90;;;4.82;;
17564;SDS011;62994;52.126;5.596;2023-10-08T01:58:19;11.50;;;5.35;;
17564;SDS011;62994;52.126;5.596;2023-10-08T02:00:47;6.20;;;4.80;;
17564;SDS011;62994;52.126;5.596;2023-10-08T02:03:17;13.85;;;5.28;;
17564;SDS011;62994;52.126;5.596;2023-10-08T02:05:44;14.20;;;5.22;;
17564;SDS011;62994;52.126;5.596;2023-10-08T02:08:12;9.27;;;5.68;;
17564;SDS011;62994;52.126;5.596;2023-10-08T02:10:43;14.40;;;5.07;;
17564;SDS011;62994;52.126;5.596;2023-10-08T02:13:13;11.35;;;5.90;;
17564;SDS011;62994;52.126;5.596;2023-10-08T02:15:43;13.98;;;5.45;;
17564;SDS011;62994;52.126;5.596;2023-10-08T02:18:11;15.85;;;5.63;;
17564;SDS011;62994;52.126;5.596;2023-10-08T02:20:38;9.75;;;5.47;;
17564;SDS011;62994;52.126;5.596;2023-10-08T02:23:06;9.95;;;5.20;;
17564;SDS011;62994;52.126;5.596;2023-10-08T02:25:33;11.93;;;6.18;;
17564;SDS011;62994;52.126;5.596;2023-10-08T02:28:03;9.73;;;5.10;;
17564;SDS011;62994;52.126;5.596;2023-10-08T02:30:30;11.73;;;5.40;;
17564;SDS011;62994;52.126;5.596;2023-10-08T02:32:57;14.70;;;5.78;;
17564;SDS011;62994;52.126;5.596;2023-10-08T02:35:24;13.82;;;6.10;;
17564;SDS011;62994;52.126;5.596;2023-10-08T02:37:52;10.55;;;5.07;;
17564;SDS011;62994;52.126;5.596;2023-10-08T02:40:20;13.32;;;5.93;;
17564;SDS011;62994;52.126;5.596;2023-10-08T02:42:52;12.70;;;5.80;;
17564;SDS011;62994;52.126;5.596;2023-10-08T02:45:24;14.77;;;5.35;;
17564;SDS011;62994;52.126;5.596;2023-10-08T02:47:52;11.85;;;5.53;;
17564;SDS011;62994;52.126;5.596;2023-10-08T02:50:19;13.23;;;5.50;;
17564;SDS011;62994;52.126;5.596;2023-10-08T02:52:47;10.93;;;5.45;;
17564;SDS011;62994;52.126;5.596;2023-10-08T02:55:18;10.10;;;5.40;;
17564;SDS011;62994;52.126;5.596;2023-10-08T02:57:53;11.93;;;5.75;;
17564;SDS011;62994;52.126;5.596;2023-10-08T03:00:21;7.55;;;5.35;;
17564;SDS011;62994;52.126;5.596;2023-10-08T03:02:56;8.02;;;4.90;;
17564;SDS011;62994;52.126;5.596;2023-10-08T03:05:23;9.85;;;5.60;;
17564;SDS011;62994;52.126;5.596;2023-10-08T03:07:54;8.00;;;5.22;;
17564;SDS011;62994;52.126;5.596;2023-10-08T03:10:23;11.27;;;5.55;;
17564;SDS011;62994;52.126;5.596;2023-10-08T03:12:57;10.63;;;5.57;;
17564;SDS011;62994;52.126;5.596;2023-10-08T03:15:29;11.65;;;6.15;;
17564;SDS011;62994;52.126;5.596;2023-10-08T03:18:05;11.85;;;6.10;;
17564;SDS011;62994;52.126;5.596;2023-10-08T03:20:35;12.20;;;5.43;;
17564;SDS011;62994;52.126;5.596;2023-10-08T03:23:08;10.80;;;5.57;;
17564;SDS011;62994;52.126;5.596;2023-10-08T03:25:50;6.07;;;5.15;;
17564;SDS011;62994;52.126;5.596;2023-10-08T03:28:24;7.63;;;4.90;;
17564;SDS011;62994;52.126;5.596;2023-10-08T03:30:53;10.65;;;5.43;;
17564;SDS011;62994;52.126;5.596;2023-10-08T03:33:30;13.15;;;5.90;;
17564;SDS011;62994;52.126;5.596;2023-10-08T03:36:03;9.00;;;5.45;;
17564;SDS011;62994;52.126;5.596;2023-10-08T03:38:38;13.90;;;5.78;;
17564;SDS011;62994;52.126;5.596;2023-10-08T03:41:15;7.97;;;6.00;;
17564;SDS011;62994;52.126;5.596;2023-10-08T03:43:45;14.57;;;6.35;;
17564;SDS011;62994;52.126;5.596;2023-10-08T03:46:21;11.32;;;6.45;;
17564;SDS011;62994;52.126;5.596;2023-10-08T03:48:52;11.27;;;5.68;;
17564;SDS011;62994;52.126;5.596;2023-10-08T03:51:22;10.95;;;5.57;;
17564;SDS011;62994;52.126;5.596;2023-10-08T03:53:52;7.60;;;5.72;;
17564;SDS011;62994;52.126;5.596;2023-10-08T03:56:28;7.43;;;4.90;;
17564;SDS011;62994;52.126;5.596;2023-10-08T03:58:56;8.70;;;6.05;;
17564;SDS011;62994;52.126;5.596;2023-10-08T04:01:25;10.98;;;6.13;;
17564;SDS011;62994;52.126;5.596;2023-10-08T04:03:58;8.52;;;6.13;;
17564;SDS011;62994;52.126;5.596;2023-10-08T04:06:26;9.07;;;6.00;;
17564;SDS011;62994;52.126;5.596;2023-10-08T04:09:03;7.30;;;5.97;;
17564;SDS011;62994;52.126;5.596;2023-10-08T04:11:49;18.15;;;6.15;;
17564;SDS011;62994;52.126;5.596;2023-10-08T04:14:21;12.35;;;6.32;;
17564;SDS011;62994;52.126;5.596;2023-10-08T04:16:49;19.52;;;7.00;;
17564;SDS011;62994;52.126;5.596;2023-10-08T04:19:19;9.18;;;6.30;;
17564;SDS011;62994;52.126;5.596;2023-10-08T04:21:52;14.30;;;6.65;;
17564;SDS011;62994;52.126;5.596;2023-10-08T04:24:20;17.85;;;6.20;;
17564;SDS011;62994;52.126;5.596;2023-10-08T04:26:54;15.32;;;6.68;;
17564;SDS011;62994;52.126;5.596;2023-10-08T04:29:23;7.93;;;5.20;;
17564;SDS011;62994;52.126;5.596;2023-10-08T04:31:57;12.65;;;5.57;;
17564;SDS011;62994;52.126;5.596;2023-10-08T04:34:34;15.52;;;5.50;;
17564;SDS011;62994;52.126;5.596;2023-10-08T04:37:01;12.32;;;5.35;;
17564;SDS011;62994;52.126;5.596;2023-10-08T04:39:35;4.90;;;4.35;;
17564;SDS011;62994;52.126;5.596;2023-10-08T04:42:04;13.45;;;4.22;;
17564;SDS011;62994;52.126;5.596;2023-10-08T04:44:35;11.80;;;4.20;;
17564;SDS011;62994;52.126;5.596;2023-10-08T04:47:04;13.73;;;5.05;;
17564;SDS011;62994;52.126;5.596;2023-10-08T04:49:35;12.73;;;4.22;;
17564;SDS011;62994;52.126;5.596;2023-10-08T04:52:10;7.20;;;3.80;;
17564;SDS011;62994;52.126;5.596;2023-10-08T04:54:40;8.88;;;4.05;;
17564;SDS011;62994;52.126;5.596;2023-10-08T04:57:16;6.50;;;3.55;;
17564;SDS011;62994;52.126;5.596;2023-10-08T04:59:43;7.03;;;3.80;;
17564;SDS011;62994;52.126;5.596;2023-10-08T05:02:11;7.25;;;3.40;;
17564;SDS011;62994;52.126;5.596;2023-10-08T05:04:46;5.97;;;3.45;;
17564;SDS011;62994;52.126;5.596;2023-10-08T05:07:43;8.35;;;2.92;;
17564;SDS011;62994;52.126;5.596;2023-10-08T05:10:42;4.18;;;2.60;;
17564;SDS011;62994;52.126;5.596;2023-10-08T05:13:26;2.97;;;2.28;;
17564;SDS011;62994;52.126;5.596;2023-10-08T05:15:58;4.75;;;2.92;;
17564;SDS011;62994;52.126;5.596;2023-10-08T05:18:41;5.95;;;2.70;;
17564;SDS011;62994;52.126;5.596;2023-10-08T05:21:29;5.60;;;2.60;;
17564;SDS011;62994;52.126;5.596;2023-10-08T05:24:16;9.30;;;2.63;;
17564;SDS011;62994;52.126;5.596;2023-10-08T05:26:52;3.63;;;2.97;;
17564;SDS011;62994;52.126;5.596;2023-10-08T05:29:40;6.60;;;2.90;;
17564;SDS011;62994;52.126;5.596;2023-10-08T05:32:35;3.03;;;2.63;;
17564;SDS011;62994;52.126;5.596;2023-10-08T05:35:30;5.70;;;2.88;;
17564;SDS011;62994;52.126;5.596;2023-10-08T05:38:05;7.68;;;3.53;;
17564;SDS011;62994;52.126;5.596;2023-10-08T05:40:42;2.53;;;2.28;;
17564;SDS011;62994;52.126;5.596;2023-10-08T05:43:27;2.50;;;2.30;;
17564;SDS011;62994;52.126;5.596;2023-10-08T05:46:14;2.63;;;2.33;;
17564;SDS011;62994;52.126;5.596;2023-10-08T05:49:04;2.40;;;1.90;;
17564;SDS011;62994;52.126;5.596;2023-10-08T05:51:51;3.47;;;2.10;;
17564;SDS011;62994;52.126;5.596;2023-10-08T05:54:37;1.92;;;1.67;;
17564;SDS011;62994;52.126;5.596;2023-10-08T05:57:22;3.08;;;2.05;;
17564;SDS011;62994;52.126;5.596;2023-10-08T06:00:04;2.42;;;1.65;;
17564;SDS011;62994;52.126;5.596;2023-10-08T06:02:50;3.20;;;1.48;;
17564;SDS011;62994;52.126;5.596;2023-10-08T06:05:34;1.85;;;1.70;;
17564;SDS011;62994;52.126;5.596;2023-10-08T06:08:09;4.00;;;1.88;;
17564;SDS011;62994;52.126;5.596;2023-10-08T06:10:41;1.60;;;1.50;;
17564;SDS011;62994;52.126;5.596;2023-10-08T06:13:09;2.15;;;1.60;;
17564;SDS011;62994;52.126;5.596;2023-10-08T06:15:42;4.00;;;1.80;;
17564;SDS011;62994;52.126;5.596;2023-10-08T06:18:30;2.97;;;1.40;;
17564;SDS011;62994;52.126;5.596;2023-10-08T06:20:57;1.70;;;1.60;;
17564;SDS011;62994;52.126;5.596;2023-10-08T06:23:30;5.75;;;1.60;;
17564;SDS011;62994;52.126;5.596;2023-10-08T06:26:01;3.60;;;2.05;;
17564;SDS011;62994;52.126;5.596;2023-10-08T06:28:44;3.08;;;1.90;;
17564;SDS011;62994;52.126;5.596;2023-10-08T06:31:11;5.13;;;1.70;;
17564;SDS011;62994;52.126;5.596;2023-10-08T06:33:41;3.00;;;1.80;;
17564;SDS011;62994;52.126;5.596;2023-10-08T06:36:09;1.90;;;1.77;;
17564;SDS011;62994;52.126;5.596;2023-10-08T06:38:41;3.80;;;1.80;;
17564;SDS011;62994;52.126;5.596;2023-10-08T06:41:11;2.22;;;1.92;;
17564;SDS011;62994;52.126;5.596;2023-10-08T06:43:43;2.53;;;2.33;;
17564;SDS011;62994;52.126;5.596;2023-10-08T06:46:13;2.38;;;2.28;;
17564;SDS011;62994;52.126;5.596;2023-10-08T06:48:40;2.85;;;1.67;;
17564;SDS011;62994;52.126;5.596;2023-10-08T06:51:08;4.70;;;2.03;;
17564;SDS011;62994;52.126;5.596;2023-10-08T06:53:47;2.17;;;2.08;;
17564;SDS011;62994;52.126;5.596;2023-10-08T06:56:16;3.60;;;2.20;;
17564;SDS011;62994;52.126;5.596;2023-10-08T06:58:45;2.50;;;2.40;;
17564;SDS011;62994;52.126;5.596;2023-10-08T07:01:13;2.15;;;2.05;;
17564;SDS011;62994;52.126;5.596;2023-10-08T07:03:46;2.42;;;2.22;;
17564;SDS011;62994;52.126;5.596;2023-10-08T07:06:14;2.13;;;2.03;;
17564;SDS011;62994;52.126;5.596;2023-10-08T07:08:50;2.53;;;2.42;;
17564;SDS011;62994;52.126;5.596;2023-10-08T07:11:21;2.42;;;2.33;;
17564;SDS011;62994;52.126;5.596;2023-10-08T07:13:49;2.60;;;2.40;;
17564;SDS011;62994;52.126;5.596;2023-10-08T07:16:17;2.80;;;2.55;;
17564;SDS011;62994;52.126;5.596;2023-10-08T07:18:46;2.80;;;2.70;;
17564;SDS011;62994;52.126;5.596;2023-10-08T07:21:18;2.42;;;2.33;;
17564;SDS011;62994;52.126;5.596;2023-10-08T07:23:52;3.25;;;2.50;;
17564;SDS011;62994;52.126;5.596;2023-10-08T07:26:27;3.50;;;2.58;;
17564;SDS011;62994;52.126;5.596;2023-10-08T07:29:01;2.80;;;2.60;;
17564;SDS011;62994;52.126;5.596;2023-10-08T07:31:33;2.90;;;2.80;;
17564;SDS011;62994;52.126;5.596;2023-10-08T07:34:06;2.97;;;2.78;;
17564;SDS011;62994;52.126;5.596;2023-10-08T07:36:43;2.78;;;2.67;;
17564;SDS011;62994;52.126;5.596;2023-10-08T07:39:21;2.78;;;2.67;;
17564;SDS011;62994;52.126;5.596;2023-10-08T07:42:01;2.80;;;2.70;;
17564;SDS011;62994;52.126;5.596;2023-10-08T07:44:30;2.75;;;2.65;;
17564;SDS011;62994;52.126;5.596;2023-10-08T07:47:00;2.83;;;2.72;;
17564;SDS011;62994;52.126;5.596;2023-10-08T07:49:30;2.95;;;2.75;;
17564;SDS011;62994;52.126;5.596;2023-10-08T07:51:58;3.03;;;2.88;;
17564;SDS011;62994;52.126;5.596;2023-10-08T07:54:25;3.92;;;3.03;;
17564;SDS011;62994;52.126;5.596;2023-10-08T07:56:53;2.30;;;2.20;;
17564;SDS011;62994;52.126;5.596;2023-10-08T07:59:26;2.55;;;2.40;;
17564;SDS011;62994;52.126;5.596;2023-10-08T08:01:53;3.17;;;2.80;;
17564;SDS011;62994;52.126;5.596;2023-10-08T08:04:20;2.78;;;2.67;;
17564;SDS011;62994;52.126;5.596;2023-10-08T08:06:48;2.22;;;2.08;;
17564;SDS011;62994;52.126;5.596;2023-10-08T08:09:16;2.10;;;1.90;;
17564;SDS011;62994;52.126;5.596;2023-10-08T08:11:46;2.47;;;2.05;;
17564;SDS011;62994;52.126;5.596;2023-10-08T08:14:14;2.13;;;2.03;;
17564;SDS011;62994;52.126;5.596;2023-10-08T08:16:44;4.47;;;2.10;;
17564;SDS011;62994;52.126;5.596;2023-10-08T08:19:20;2.90;;;2.03;;
17564;SDS011;62994;52.126;5.596;2023-10-08T08:21:49;2.40;;;2.15;;
17564;SDS011;62994;52.126;5.596;2023-10-08T08:24:17;2.58;;;2.38;;
17564;SDS011;62994;52.126;5.596;2023-10-08T08:26:56;2.33;;;2.15;;
17564;SDS011;62994;52.126;5.596;2023-10-08T08:29:33;2.83;;;2.53;;
17564;SDS011;62994;52.126;5.596;2023-10-08T08:32:10;3.05;;;2.30;;
17564;SDS011;62994;52.126;5.596;2023-10-08T08:34:40;2.55;;;2.45;;
17564;SDS011;62994;52.126;5.596;2023-10-08T08:37:09;5.20;;;2.42;;
17564;SDS011;62994;52.126;5.596;2023-10-08T08:39:41;2.17;;;2.08;;
17564;SDS011;62994;52.126;5.596;2023-10-08T08:42:19;1.88;;;1.77;;
17564;SDS011;62994;52.126;5.596;2023-10-08T08:44:48;2.42;;;2.33;;
17564;SDS011;62994;52.126;5.596;2023-10-08T08:47:29;2.42;;;2.22;;
17564;SDS011;62994;52.126;5.596;2023-10-08T08:49:57;2.05;;;1.95;;
17564;SDS011;62994;52.126;5.596;2023-10-08T08:52:33;2.08;;;1.98;;
17564;SDS011;62994;52.126;5.596;2023-10-08T08:55:02;2.10;;;2.00;;
17564;SDS011;62994;52.126;5.596;2023-10-08T08:57:33;2.20;;;1.92;;
17564;SDS011;62994;52.126;5.596;2023-10-08T09:00:00;2.00;;;1.90;;
17564;SDS011;62994;52.126;5.596;2023-10-08T09:02:35;2.50;;;1.85;;
17564;SDS011;62994;52.126;5.596;2023-10-08T09:05:03;2.33;;;2.05;;
17564;SDS011;62994;52.126;5.596;2023-10-08T09:07:51;2.30;;;2.10;;
17564;SDS011;62994;52.126;5.596;2023-10-08T09:10:19;2.30;;;2.20;;
17564;SDS011;62994;52.126;5.596;2023-10-08T09:12:51;3.10;;;2.10;;
17564;SDS011;62994;52.126;5.596;2023-10-08T09:15:19;2.33;;;2.22;;
17564;SDS011;62994;52.126;5.596;2023-10-08T09:17:49;2.92;;;2.72;;
17564;SDS011;62994;52.126;5.596;2023-10-08T09:20:17;2.30;;;2.20;;
17564;SDS011;62994;52.126;5.596;2023-10-08T09:22:45;2.20;;;2.10;;
17564;SDS011;62994;52.126;5.596;2023-10-08T09:25:15;2.83;;;2.63;;
17564;SDS011;62994;52.126;5.596;2023-10-08T09:27:50;2.63;;;2.42;;
17564;SDS011;62994;52.126;5.596;2023-10-08T09:30:21;2.08;;;1.98;;
17564;SDS011;62994;52.126;5.596;2023-10-08T09:32:52;2.60;;;2.47;;
17564;SDS011;62994;52.126;5.596;2023-10-08T09:35:19;2.58;;;2.38;;
17564;SDS011;62994;52.126;5.596;2023-10-08T09:37:48;2.63;;;2.53;;
17564;SDS011;62994;52.126;5.596;2023-10-08T09:40:15;2.50;;;2.38;;
17564;SDS011;62994;52.126;5.596;2023-10-08T09:42:46;2.97;;;2.80;;
17564;SDS011;62994;52.126;5.596;2023-10-08T09:45:14;2.88;;;2.78;;
17564;SDS011;62994;52.126;5.596;2023-10-08T09:47:42;2.47;;;2.28;;
17564;SDS011;62994;52.126;5.596;2023-10-08T09:50:18;4.18;;;3.22;;
17564;SDS011;62994;52.126;5.596;2023-10-08T09:52:49;2.60;;;2.40;;
17564;SDS011;62994;52.126;5.596;2023-10-08T09:55:26;3.92;;;2.53;;
17564;SDS011;62994;52.126;5.596;2023-10-08T09:57:54;2.28;;;2.17;;
17564;SDS011;62994;52.126;5.596;2023-10-08T10:00:22;2.58;;;2.47;;
17564;SDS011;62994;52.126;5.596;2023-10-08T10:02:56;3.60;;;3.40;;
17564;SDS011;62994;52.126;5.596;2023-10-08T10:05:31;3.60;;;3.30;;
17564;SDS011;62994;52.126;5.596;2023-10-08T10:08:02;3.47;;;2.75;;
17564;SDS011;62994;52.126;5.596;2023-10-08T10:10:30;3.10;;;2.55;;
17564;SDS011;62994;52.126;5.596;2023-10-08T10:13:00;2.50;;;2.40;;
17564;SDS011;62994;52.126;5.596;2023-10-08T10:15:31;2.97;;;2.88;;
17564;SDS011;62994;52.126;5.596;2023-10-08T10:18:07;2.80;;;2.58;;
17564;SDS011;62994;52.126;5.596;2023-10-08T10:20:41;2.85;;;2.75;;
17564;SDS011;62994;52.126;5.596;2023-10-08T10:26:02;4.90;;;2.78;;
17564;SDS011;62994;52.126;5.596;2023-10-08T10:28:30;6.85;;;3.00;;
17564;SDS011;62994;52.126;5.596;2023-10-08T10:30:58;2.67;;;2.58;;
17564;SDS011;62994;52.126;5.596;2023-10-08T10:33:32;3.75;;;3.20;;
17564;SDS011;62994;52.126;5.596;2023-10-08T10:36:01;2.75;;;2.60;;
17564;SDS011;62994;52.126;5.596;2023-10-08T10:38:33;3.47;;;2.60;;
17564;SDS011;62994;52.126;5.596;2023-10-08T10:41:06;3.17;;;2.97;;
17564;SDS011;62994;52.126;5.596;2023-10-08T10:43:34;2.60;;;2.50;;
17564;SDS011;62994;52.126;5.596;2023-10-08T10:46:05;3.13;;;2.25;;
17564;SDS011;62994;52.126;5.596;2023-10-08T10:48:54;2.00;;;1.90;;
17564;SDS011;62994;52.126;5.596;2023-10-08T10:51:34;2.85;;;2.60;;
17564;SDS011;62994;52.126;5.596;2023-10-08T10:54:00;2.60;;;2.40;;
17564;SDS011;62994;52.126;5.596;2023-10-08T10:56:35;3.00;;;2.80;;
17564;SDS011;62994;52.126;5.596;2023-10-08T10:59:07;2.42;;;2.30;;
17564;SDS011;62994;52.126;5.596;2023-10-08T11:01:44;3.28;;;2.38;;
17564;SDS011;62994;52.126;5.596;2023-10-08T11:04:17;4.85;;;2.17;;
17564;SDS011;62994;52.126;5.596;2023-10-08T11:06:55;2.75;;;2.38;;
17564;SDS011;62994;52.126;5.596;2023-10-08T11:09:25;2.30;;;2.20;;
17564;SDS011;62994;52.126;5.596;2023-10-08T11:12:03;10.02;;;2.50;;
17564;SDS011;62994;52.126;5.596;2023-10-08T11:14:36;2.60;;;2.50;;
17564;SDS011;62994;52.126;5.596;2023-10-08T11:17:14;2.90;;;2.63;;
17564;SDS011;62994;52.126;5.596;2023-10-08T11:19:46;3.08;;;2.83;;
17564;SDS011;62994;52.126;5.596;2023-10-08T11:22:15;3.80;;;2.83;;
17564;SDS011;62994;52.126;5.596;2023-10-08T11:24:43;3.78;;;3.58;;
17564;SDS011;62994;52.126;5.596;2023-10-08T11:27:13;2.65;;;2.45;;
17564;SDS011;62994;52.126;5.596;2023-10-08T11:29:54;3.58;;;3.28;;
17564;SDS011;62994;52.126;5.596;2023-10-08T11:32:23;3.40;;;3.10;;
17564;SDS011;62994;52.126;5.596;2023-10-08T11:34:54;3.38;;;3.17;;
17564;SDS011;62994;52.126;5.596;2023-10-08T11:37:28;3.53;;;3.30;;
17564;SDS011;62994;52.126;5.596;2023-10-08T11:39:59;3.33;;;3.13;;
17564;SDS011;62994;52.126;5.596;2023-10-08T11:42:34;2.75;;;2.65;;
17564;SDS011;62994;52.126;5.596;2023-10-08T11:45:09;3.05;;;2.85;;
17564;SDS011;62994;52.126;5.596;2023-10-08T11:47:51;2.80;;;2.60;;
17564;SDS011;62994;52.126;5.596;2023-10-08T11:50:25;4.15;;;2.88;;
17564;SDS011;62994;52.126;5.596;2023-10-08T11:53:09;2.65;;;2.47;;
17564;SDS011;62994;52.126;5.596;2023-10-08T11:55:36;2.90;;;2.70;;
17564;SDS011;62994;52.126;5.596;2023-10-08T11:58:06;2.85;;;2.65;;
17564;SDS011;62994;52.126;5.596;2023-10-08T12:00:36;3.08;;;2.40;;
17564;SDS011;62994;52.126;5.596;2023-10-08T12:03:12;2.35;;;2.20;;
17564;SDS011;62994;52.126;5.596;2023-10-08T12:05:43;9.63;;;2.70;;
17564;SDS011;62994;52.126;5.596;2023-10-08T12:08:14;2.33;;;2.22;;
17564;SDS011;62994;52.126;5.596;2023-10-08T12:10:44;1.60;;;1.50;;
17564;SDS011;62994;52.126;5.596;2023-10-08T12:13:18;2.00;;;1.80;;
17564;SDS011;62994;52.126;5.596;2023-10-08T12:15:49;2.03;;;1.42;;
17564;SDS011;62994;52.126;5.596;2023-10-08T12:18:16;1.58;;;1.50;;
17564;SDS011;62994;52.126;5.596;2023-10-08T12:20:54;1.55;;;1.45;;
17564;SDS011;62994;52.126;5.596;2023-10-08T12:23:23;1.50;;;1.40;;
17564;SDS011;62994;52.126;5.596;2023-10-08T12:25:51;1.45;;;1.35;;
17564;SDS011;62994;52.126;5.596;2023-10-08T12:28:20;4.60;;;1.23;;
17564;SDS011;62994;52.126;5.596;2023-10-08T12:30:48;3.17;;;1.15;;
17564;SDS011;62994;52.126;5.596;2023-10-08T12:33:17;1.17;;;1.08;;
17564;SDS011;62994;52.126;5.596;2023-10-08T12:35:45;2.28;;;1.48;;
17564;SDS011;62994;52.126;5.596;2023-10-08T12:38:13;1.00;;;1.00;;
17564;SDS011;62994;52.126;5.596;2023-10-08T12:40:42;1.35;;;1.25;;
17564;SDS011;62994;52.126;5.596;2023-10-08T12:43:18;1.27;;;1.00;;
17564;SDS011;62994;52.126;5.596;2023-10-08T12:45:48;0.95;;;0.95;;
17564;SDS011;62994;52.126;5.596;2023-10-08T12:48:21;2.30;;;0.95;;
17564;SDS011;62994;52.126;5.596;2023-10-08T12:50:52;1.33;;;0.95;;
17564;SDS011;62994;52.126;5.596;2023-10-08T12:53:25;0.90;;;0.90;;
17564;SDS011;62994;52.126;5.596;2023-10-08T12:56:00;4.47;;;0.90;;
17564;SDS011;62994;52.126;5.596;2023-10-08T12:58:31;0.80;;;0.80;;
17564;SDS011;62994;52.126;5.596;2023-10-08T13:01:09;1.88;;;1.33;;
17564;SDS011;62994;52.126;5.596;2023-10-08T13:03:36;1.27;;;1.15;;
17564;SDS011;62994;52.126;5.596;2023-10-08T13:06:07;3.22;;;1.20;;
17564;SDS011;62994;52.126;5.596;2023-10-08T13:08:40;2.13;;;0.80;;
17564;SDS011;62994;52.126;5.596;2023-10-08T13:11:12;1.00;;;0.77;;
17564;SDS011;62994;52.126;5.596;2023-10-08T13:13:40;2.85;;;0.65;;
17564;SDS011;62994;52.126;5.596;2023-10-08T13:16:12;1.02;;;0.90;;
17564;SDS011;62994;52.126;5.596;2023-10-08T13:18:46;3.40;;;1.17;;
17564;SDS011;62994;52.126;5.596;2023-10-08T13:21:13;3.60;;;1.40;;
17564;SDS011;62994;52.126;5.596;2023-10-08T13:23:41;1.20;;;1.00;;
17564;SDS011;62994;52.126;5.596;2023-10-08T13:26:08;2.60;;;1.30;;
17564;SDS011;62994;52.126;5.596;2023-10-08T13:28:38;2.47;;;1.45;;
17564;SDS011;62994;52.126;5.596;2023-10-08T13:31:05;1.30;;;1.23;;
17564;SDS011;62994;52.126;5.596;2023-10-08T13:33:36;2.47;;;1.33;;
17564;SDS011;62994;52.126;5.596;2023-10-08T13:36:05;2.90;;;1.60;;
17564;SDS011;62994;52.126;5.596;2023-10-08T13:38:36;2.67;;;1.92;;
17564;SDS011;62994;52.126;5.596;2023-10-08T13:41:06;3.13;;;2.00;;
17564;SDS011;62994;52.126;5.596;2023-10-08T13:43:41;2.00;;;1.65;;
17564;SDS011;62994;52.126;5.596;2023-10-08T13:46:11;2.15;;;1.95;;
17564;SDS011;62994;52.126;5.596;2023-10-08T13:48:39;3.55;;;3.25;;
17564;SDS011;62994;52.126;5.596;2023-10-08T13:51:11;3.08;;;2.17;;
17564;SDS011;62994;52.126;5.596;2023-10-08T13:53:40;2.63;;;2.42;;
17564;SDS011;62994;52.126;5.596;2023-10-08T13:56:10;6.78;;;2.50;;
17564;SDS011;62994;52.126;5.596;2023-10-08T13:58:38;4.13;;;2.33;;
17564;SDS011;62994;52.126;5.596;2023-10-08T14:01:12;2.78;;;2.55;;
17564;SDS011;62994;52.126;5.596;2023-10-08T14:03:46;2.05;;;1.77;;
17564;SDS011;62994;52.126;5.596;2023-10-08T14:06:14;2.72;;;2.53;;
17564;SDS011;62994;52.126;5.596;2023-10-08T14:08:41;2.13;;;2.03;;
17564;SDS011;62994;52.126;5.596;2023-10-08T14:11:18;3.78;;;2.00;;
17564;SDS011;62994;52.126;5.596;2023-10-08T14:13:48;2.88;;;2.42;;
17564;SDS011;62994;52.126;5.596;2023-10-08T14:16:18;3.58;;;3.03;;
17564;SDS011;62994;52.126;5.596;2023-10-08T14:18:48;2.15;;;2.05;;
17564;SDS011;62994;52.126;5.596;2023-10-08T14:21:24;2.40;;;2.30;;
17564;SDS011;62994;52.126;5.596;2023-10-08T14:23:55;3.22;;;2.97;;
17564;SDS011;62994;52.126;5.596;2023-10-08T14:26:33;4.03;;;2.65;;
17564;SDS011;62994;52.126;5.596;2023-10-08T14:29:03;3.28;;;2.95;;
17564;SDS011;62994;52.126;5.596;2023-10-08T14:31:37;2.83;;;2.63;;
17564;SDS011;62994;52.126;5.596;2023-10-08T14:34:04;3.70;;;3.50;;
17564;SDS011;62994;52.126;5.596;2023-10-08T14:36:44;4.90;;;4.57;;
17564;SDS011;62994;52.126;5.596;2023-10-08T14:39:29;7.38;;;6.88;;
17564;SDS011;62994;52.126;5.596;2023-10-08T14:42:19;5.55;;;3.88;;
17564;SDS011;62994;52.126;5.596;2023-10-08T14:45:04;3.25;;;3.05;;
17564;SDS011;62994;52.126;5.596;2023-10-08T14:47:37;2.65;;;2.45;;
17564;SDS011;62994;52.126;5.596;2023-10-08T14:50:05;3.13;;;2.35;;
17564;SDS011;62994;52.126;5.596;2023-10-08T14:52:41;2.50;;;2.40;;
17564;SDS011;62994;52.126;5.596;2023-10-08T14:55:08;3.20;;;2.72;;
17564;SDS011;62994;52.126;5.596;2023-10-08T14:57:36;2.80;;;2.60;;
17564;SDS011;62994;52.126;5.596;2023-10-08T15:00:04;3.38;;;3.10;;
17564;SDS011;62994;52.126;5.596;2023-10-08T15:02:32;2.80;;;2.70;;
17564;SDS011;62994;52.126;5.596;2023-10-08T15:05:00;4.05;;;2.72;;
17564;SDS011;62994;52.126;5.596;2023-10-08T15:07:28;2.28;;;2.00;;
17564;SDS011;62994;52.126;5.596;2023-10-08T15:09:57;3.53;;;2.50;;
17564;SDS011;62994;52.126;5.596;2023-10-08T15:12:28;2.75;;;2.60;;
17564;SDS011;62994;52.126;5.596;2023-10-08T15:14:59;5.28;;;2.97;;
17564;SDS011;62994;52.126;5.596;2023-10-08T15:17:37;2.63;;;2.42;;
17564;SDS011;62994;52.126;5.596;2023-10-08T15:20:08;3.03;;;2.80;;
17564;SDS011;62994;52.126;5.596;2023-10-08T15:22:39;4.07;;;2.60;;